sensor_id;sensor_type;location;lat;lon;timestamp;pressure;altitude;pressure_sealevel;temperature;humidity
83177;BME280;73074;52.006;4.704;2023-12-20T00:05:36;101665.34;;;6.42;94.68
83177;BME280;73074;52.006;4.704;2023-12-20T00:10:44;101664.56;;;6.32;96.45
83177;BME280;73074;52.006;4.704;2023-12-20T00:21:56;101672.41;;;6.38;96.22
83177;BME280;73074;52.006;4.704;2023-12-20T00:27:40;101658.34;;;6.38;96.66
83177;BME280;73074;52.006;4.704;2023-12-20T00:44:37;101657.38;;;6.45;97.19
83177;BME280;73074;52.006;4.704;2023-12-20T00:49:55;101662.56;;;6.51;96.63
83177;BME280;73074;52.006;4.704;2023-12-20T00:55:22;101659.91;;;6.51;96.66
83177;BME280;73074;52.006;4.704;2023-12-20T01:00:55;101657.22;;;6.56;96.49
83177;BME280;73074;52.006;4.704;2023-12-20T01:05:59;101650.13;;;6.61;96.21
83177;BME280;73074;52.006;4.704;2023-12-20T01:11:11;101654.31;;;6.74;94.78
83177;BME280;73074;52.006;4.704;2023-12-20T01:16:35;101662.31;;;6.69;95.04
83177;BME280;73074;52.006;4.704;2023-12-20T01:21:56;101667.59;;;6.69;93.91
83177;BME280;73074;52.006;4.704;2023-12-20T01:27:19;101664.97;;;6.69;94.02
83177;BME280;73074;52.006;4.704;2023-12-20T01:32:39;101664.09;;;6.69;94.35
83177;BME280;73074;52.006;4.704;2023-12-20T01:38:13;101658.72;;;6.73;94.73
83177;BME280;73074;52.006;4.704;2023-12-20T01:43:32;101652.44;;;6.82;93.97
83177;BME280;73074;52.006;4.704;2023-12-20T01:48:50;101661.25;;;6.82;94.92
83177;BME280;73074;52.006;4.704;2023-12-20T01:54:22;101656.78;;;6.86;95.02
83177;BME280;73074;52.006;4.704;2023-12-20T01:59:50;101649.59;;;6.96;93.97
83177;BME280;73074;52.006;4.704;2023-12-20T02:10:54;101656.63;;;6.97;93.86
83177;BME280;73074;52.006;4.704;2023-12-20T02:16:27;101658.34;;;6.99;93.89
83177;BME280;73074;52.006;4.704;2023-12-20T02:21:46;101666.34;;;6.95;95.01
83177;BME280;73074;52.006;4.704;2023-12-20T02:26:58;101658.25;;;7.04;94.07
83177;BME280;73074;52.006;4.704;2023-12-20T02:32:25;101653.94;;;7.00;94.60
83177;BME280;73074;52.006;4.704;2023-12-20T02:37:34;101642.34;;;7.07;93.63
83177;BME280;73074;52.006;4.704;2023-12-20T02:42:59;101646.69;;;7.13;93.02
83177;BME280;73074;52.006;4.704;2023-12-20T02:48:04;101626.50;;;7.07;91.66
83177;BME280;73074;52.006;4.704;2023-12-20T02:53:49;101620.53;;;6.96;92.96
83177;BME280;73074;52.006;4.704;2023-12-20T03:04:15;101620.44;;;7.02;92.36
83177;BME280;73074;52.006;4.704;2023-12-20T03:09:39;101620.41;;;7.03;91.97
83177;BME280;73074;52.006;4.704;2023-12-20T03:14:55;101617.03;;;6.95;93.30
83177;BME280;73074;52.006;4.704;2023-12-20T03:20:00;101604.50;;;7.08;92.82
83177;BME280;73074;52.006;4.704;2023-12-20T03:25:07;101608.03;;;7.05;93.30
83177;BME280;73074;52.006;4.704;2023-12-20T03:30:17;101622.09;;;7.07;92.31
83177;BME280;73074;52.006;4.704;2023-12-20T03:35:36;101616.81;;;7.07;92.83
83177;BME280;73074;52.006;4.704;2023-12-20T03:40:43;101620.19;;;7.17;90.97
83177;BME280;73074;52.006;4.704;2023-12-20T03:45:46;101614.03;;;7.17;91.18
83177;BME280;73074;52.006;4.704;2023-12-20T03:51:15;101616.06;;;6.99;91.69
83177;BME280;73074;52.006;4.704;2023-12-20T03:56:36;101609.78;;;7.08;90.74
83177;BME280;73074;52.006;4.704;2023-12-20T04:02:13;101609.16;;;6.91;92.51
83177;BME280;73074;52.006;4.704;2023-12-20T04:07:33;101611.72;;;6.97;91.42
83177;BME280;73074;52.006;4.704;2023-12-20T04:13:05;101619.53;;;7.03;91.08
83177;BME280;73074;52.006;4.704;2023-12-20T04:18:40;101612.66;;;6.93;92.17
83177;BME280;73074;52.006;4.704;2023-12-20T04:23:48;101608.00;;;7.08;91.48
83177;BME280;73074;52.006;4.704;2023-12-20T04:28:57;101616.00;;;7.04;92.29
83177;BME280;73074;52.006;4.704;2023-12-20T04:34:00;101619.59;;;7.00;91.81
83177;BME280;73074;52.006;4.704;2023-12-20T04:39:07;101602.84;;;7.01;92.32
83177;BME280;73074;52.006;4.704;2023-12-20T04:44:10;101602.03;;;6.97;92.40
83177;BME280;73074;52.006;4.704;2023-12-20T04:49:23;101596.75;;;6.97;91.35
83177;BME280;73074;52.006;4.704;2023-12-20T04:54:41;101592.53;;;6.86;91.39
83177;BME280;73074;52.006;4.704;2023-12-20T04:59:50;101588.97;;;6.88;91.35
83177;BME280;73074;52.006;4.704;2023-12-20T05:05:09;101583.59;;;6.93;91.21
83177;BME280;73074;52.006;4.704;2023-12-20T05:10:18;101602.97;;;6.92;91.81
83177;BME280;73074;52.006;4.704;2023-12-20T05:15:46;101604.72;;;6.93;91.61
83177;BME280;73074;52.006;4.704;2023-12-20T05:21:20;101607.38;;;6.93;91.07
83177;BME280;73074;52.006;4.704;2023-12-20T05:26:41;101606.47;;;6.95;91.16
83177;BME280;73074;52.006;4.704;2023-12-20T05:32:10;101609.09;;;6.94;91.94
83177;BME280;73074;52.006;4.704;2023-12-20T05:37:56;101600.19;;;7.01;92.68
83177;BME280;73074;52.006;4.704;2023-12-20T05:43:10;101602.81;;;7.02;92.62
83177;BME280;73074;52.006;4.704;2023-12-20T05:48:41;101594.84;;;7.04;92.51
83177;BME280;73074;52.006;4.704;2023-12-20T05:54:08;101590.44;;;7.04;93.15
83177;BME280;73074;52.006;4.704;2023-12-20T05:59:22;101592.16;;;7.08;92.94
83177;BME280;73074;52.006;4.704;2023-12-20T06:04:55;101592.84;;;7.18;91.95
83177;BME280;73074;52.006;4.704;2023-12-20T06:10:24;101594.53;;;7.24;91.93
83177;BME280;73074;52.006;4.704;2023-12-20T06:15:46;101597.13;;;7.27;91.96
83177;BME280;73074;52.006;4.704;2023-12-20T06:27:13;101596.94;;;7.37;91.63
83177;BME280;73074;52.006;4.704;2023-12-20T06:33:00;101593.28;;;7.43;90.92
83177;BME280;73074;52.006;4.704;2023-12-20T06:44:02;101576.50;;;7.46;91.27
83177;BME280;73074;52.006;4.704;2023-12-20T06:49:42;101584.44;;;7.46;91.22
83177;BME280;73074;52.006;4.704;2023-12-20T06:55:03;101573.81;;;7.47;91.47
83177;BME280;73074;52.006;4.704;2023-12-20T07:05:47;101567.63;;;7.50;91.35
83177;BME280;73074;52.006;4.704;2023-12-20T07:11:09;101563.25;;;7.49;91.49
83177;BME280;73074;52.006;4.704;2023-12-20T07:27:40;101549.50;;;7.28;92.14
83177;BME280;73074;52.006;4.704;2023-12-20T07:32:55;101543.47;;;7.20;92.81
83177;BME280;73074;52.006;4.704;2023-12-20T07:38:11;101548.88;;;7.16;93.00
83177;BME280;73074;52.006;4.704;2023-12-20T07:43:44;101563.88;;;7.14;93.11
83177;BME280;73074;52.006;4.704;2023-12-20T07:48:57;101559.44;;;7.16;92.91
83177;BME280;73074;52.006;4.704;2023-12-20T07:54:14;101569.03;;;7.20;93.20
83177;BME280;73074;52.006;4.704;2023-12-20T07:59:29;101586.50;;;7.28;92.82
83177;BME280;73074;52.006;4.704;2023-12-20T08:04:56;101587.22;;;7.38;92.28
83177;BME280;73074;52.006;4.704;2023-12-20T08:10:17;101596.81;;;7.44;92.73
83177;BME280;73074;52.006;4.704;2023-12-20T08:26:51;101582.16;;;7.72;91.37
83177;BME280;73074;52.006;4.704;2023-12-20T08:32:08;101579.41;;;7.78;90.95
83177;BME280;73074;52.006;4.704;2023-12-20T08:37:14;101566.19;;;7.78;91.78
83177;BME280;73074;52.006;4.704;2023-12-20T08:42:32;101574.72;;;7.92;90.64
83177;BME280;73074;52.006;4.704;2023-12-20T08:48:16;101586.16;;;7.93;90.81
83177;BME280;73074;52.006;4.704;2023-12-20T08:53:44;101585.97;;;8.02;90.20
83177;BME280;73074;52.006;4.704;2023-12-20T08:58:54;101580.56;;;8.07;89.96
83177;BME280;73074;52.006;4.704;2023-12-20T09:04:11;101582.25;;;8.11;89.69
83177;BME280;73074;52.006;4.704;2023-12-20T09:09:30;101568.00;;;8.18;89.74
83177;BME280;73074;52.006;4.704;2023-12-20T09:20:14;101559.81;;;8.28;89.46
83177;BME280;73074;52.006;4.704;2023-12-20T09:25:59;101569.38;;;8.36;89.03
83177;BME280;73074;52.006;4.704;2023-12-20T09:37:09;101576.41;;;8.37;89.33
83177;BME280;73074;52.006;4.704;2023-12-20T09:47:54;101578.81;;;8.47;89.62
83177;BME280;73074;52.006;4.704;2023-12-20T09:53:10;101584.13;;;8.47;89.57
83177;BME280;73074;52.006;4.704;2023-12-20T09:58:18;101598.88;;;8.59;89.39
83177;BME280;73074;52.006;4.704;2023-12-20T10:04:04;101599.66;;;8.63;89.40
83177;BME280;73074;52.006;4.704;2023-12-20T10:09:28;101590.72;;;8.68;89.10
83177;BME280;73074;52.006;4.704;2023-12-20T10:14:39;101582.69;;;8.71;88.10
83177;BME280;73074;52.006;4.704;2023-12-20T10:19:58;101584.44;;;8.72;88.78
83177;BME280;73074;52.006;4.704;2023-12-20T10:25:04;101587.78;;;8.79;88.01
83177;BME280;73074;52.006;4.704;2023-12-20T10:30:53;101576.34;;;8.77;88.50
83177;BME280;73074;52.006;4.704;2023-12-20T10:36:09;101577.09;;;8.83;87.69
83177;BME280;73074;52.006;4.704;2023-12-20T10:41:41;101577.13;;;8.82;88.04
83177;BME280;73074;52.006;4.704;2023-12-20T10:47:21;101582.34;;;8.85;87.55
83177;BME280;73074;52.006;4.704;2023-12-20T10:52:34;101557.63;;;8.84;88.62
83177;BME280;73074;52.006;4.704;2023-12-20T10:57:42;101554.81;;;8.91;88.37
83177;BME280;73074;52.006;4.704;2023-12-20T11:03:20;101549.44;;;8.95;88.88
83177;BME280;73074;52.006;4.704;2023-12-20T11:14:08;101534.28;;;9.00;88.63
83177;BME280;73074;52.006;4.704;2023-12-20T11:19:26;101522.59;;;9.07;87.83
83177;BME280;73074;52.006;4.704;2023-12-20T11:24:43;101517.28;;;9.09;88.63
83177;BME280;73074;52.006;4.704;2023-12-20T11:30:02;101529.66;;;9.07;88.23
83177;BME280;73074;52.006;4.704;2023-12-20T11:40:51;101504.03;;;9.09;87.91
83177;BME280;73074;52.006;4.704;2023-12-20T11:46:05;101503.88;;;9.13;87.41
83177;BME280;73074;52.006;4.704;2023-12-20T11:51:22;101496.81;;;9.14;87.21
83177;BME280;73074;52.006;4.704;2023-12-20T11:56:30;101494.28;;;9.08;87.20
83177;BME280;73074;52.006;4.704;2023-12-20T12:02:16;101503.94;;;9.12;87.39
83177;BME280;73074;52.006;4.704;2023-12-20T12:20:15;101489.53;;;9.21;86.96
83177;BME280;73074;52.006;4.704;2023-12-20T12:25:45;101493.97;;;9.20;86.51
83177;BME280;73074;52.006;4.704;2023-12-20T12:31:04;101477.19;;;9.19;86.29
83177;BME280;73074;52.006;4.704;2023-12-20T12:36:16;101469.09;;;9.26;85.78
83177;BME280;73074;52.006;4.704;2023-12-20T12:42:02;101463.59;;;9.32;85.27
83177;BME280;73074;52.006;4.704;2023-12-20T12:47:37;101454.69;;;9.34;85.89
83177;BME280;73074;52.006;4.704;2023-12-20T12:53:21;101457.38;;;9.33;85.67
83177;BME280;73074;52.006;4.704;2023-12-20T12:58:55;101461.97;;;9.28;85.40
83177;BME280;73074;52.006;4.704;2023-12-20T13:04:14;101446.19;;;9.23;85.86
83177;BME280;73074;52.006;4.704;2023-12-20T13:09:32;101435.66;;;9.20;86.23
83177;BME280;73074;52.006;4.704;2023-12-20T13:15:18;101403.06;;;9.16;86.45
83177;BME280;73074;52.006;4.704;2023-12-20T13:32:49;101381.84;;;9.16;87.89
83177;BME280;73074;52.006;4.704;2023-12-20T13:38:05;101391.69;;;9.13;87.90
83177;BME280;73074;52.006;4.704;2023-12-20T13:43:24;101386.53;;;9.08;88.18
83177;BME280;73074;52.006;4.704;2023-12-20T13:49:06;101369.06;;;9.01;88.66
83177;BME280;73074;52.006;4.704;2023-12-20T13:54:42;101359.31;;;9.02;88.92
83177;BME280;73074;52.006;4.704;2023-12-20T14:00:24;101361.09;;;9.01;89.07
83177;BME280;73074;52.006;4.704;2023-12-20T14:05:43;101357.63;;;8.99;89.34
83177;BME280;73074;52.006;4.704;2023-12-20T14:11:06;101356.00;;;8.95;89.85
83177;BME280;73074;52.006;4.704;2023-12-20T14:16:18;101343.66;;;8.93;89.35
83177;BME280;73074;52.006;4.704;2023-12-20T14:21:24;101351.63;;;8.93;90.15
83177;BME280;73074;52.006;4.704;2023-12-20T14:26:46;101355.13;;;8.93;90.30
83177;BME280;73074;52.006;4.704;2023-12-20T14:32:12;101371.09;;;8.92;90.44
83177;BME280;73074;52.006;4.704;2023-12-20T14:37:28;101370.16;;;8.93;90.71
83177;BME280;73074;52.006;4.704;2023-12-20T14:43:01;101372.03;;;8.89;91.39
83177;BME280;73074;52.006;4.704;2023-12-20T14:48:14;101362.34;;;8.88;91.34
83177;BME280;73074;52.006;4.704;2023-12-20T14:53:31;101350.06;;;8.85;91.79
83177;BME280;73074;52.006;4.704;2023-12-20T14:58:34;101339.38;;;8.88;91.49
83177;BME280;73074;52.006;4.704;2023-12-20T15:03:41;101324.53;;;8.83;91.93
83177;BME280;73074;52.006;4.704;2023-12-20T15:09:05;101329.91;;;8.80;91.84
83177;BME280;73074;52.006;4.704;2023-12-20T15:14:09;101341.56;;;8.74;92.58
83177;BME280;73074;52.006;4.704;2023-12-20T15:19:15;101335.44;;;8.72;92.58
83177;BME280;73074;52.006;4.704;2023-12-20T15:24:28;101342.59;;;8.69;92.97
83177;BME280;73074;52.006;4.704;2023-12-20T15:29:33;101359.31;;;8.71;93.27
83177;BME280;73074;52.006;4.704;2023-12-20T15:34:52;101358.44;;;8.70;93.34
83177;BME280;73074;52.006;4.704;2023-12-20T15:39:59;101362.03;;;8.68;93.99
83177;BME280;73074;52.006;4.704;2023-12-20T15:45:20;101349.78;;;8.64;94.36
83177;BME280;73074;52.006;4.704;2023-12-20T15:50:21;101323.34;;;8.62;94.58
83177;BME280;73074;52.006;4.704;2023-12-20T15:55:33;101303.03;;;8.63;94.73
83177;BME280;73074;52.006;4.704;2023-12-20T16:00:52;101294.25;;;8.61;95.08
83177;BME280;73074;52.006;4.704;2023-12-20T16:06:21;101293.50;;;8.57;95.53
83177;BME280;73074;52.006;4.704;2023-12-20T16:11:24;101292.56;;;8.58;95.40
83177;BME280;73074;52.006;4.704;2023-12-20T16:16:39;101292.44;;;8.63;95.65
83177;BME280;73074;52.006;4.704;2023-12-20T16:21:40;101294.41;;;8.54;96.56
83177;BME280;73074;52.006;4.704;2023-12-20T16:27:04;101261.00;;;8.50;97.62
83177;BME280;73074;52.006;4.704;2023-12-20T16:53:50;101215.56;;;8.33;100.00
83177;BME280;73074;52.006;4.704;2023-12-20T17:52:20;101141.91;;;8.77;98.22
83177;BME280;73074;52.006;4.704;2023-12-20T18:03:44;101131.75;;;8.91;97.02
83177;BME280;73074;52.006;4.704;2023-12-20T18:09:06;101110.50;;;8.93;97.01
83177;BME280;73074;52.006;4.704;2023-12-20T18:25:56;101116.50;;;8.99;96.91
83177;BME280;73074;52.006;4.704;2023-12-20T18:37:45;101103.06;;;9.04;96.83
83177;BME280;73074;52.006;4.704;2023-12-20T18:43:12;101093.34;;;9.04;97.20
83177;BME280;73074;52.006;4.704;2023-12-20T18:48:16;101074.03;;;9.01;97.73
83177;BME280;73074;52.006;4.704;2023-12-20T18:53:42;101088.16;;;9.01;97.60
83177;BME280;73074;52.006;4.704;2023-12-20T18:59:08;101074.28;;;8.93;98.29
83177;BME280;73074;52.006;4.704;2023-12-20T19:04:32;101075.13;;;8.94;98.27
83177;BME280;73074;52.006;4.704;2023-12-20T19:09:35;101051.50;;;8.87;98.68
83177;BME280;73074;52.006;4.704;2023-12-20T19:15:00;101059.47;;;8.87;99.39
83177;BME280;73074;52.006;4.704;2023-12-20T19:20:27;101042.75;;;8.85;99.20
83177;BME280;73074;52.006;4.704;2023-12-20T19:25:31;101039.03;;;8.91;99.19
83177;BME280;73074;52.006;4.704;2023-12-20T19:31:11;101036.44;;;8.89;99.49
83177;BME280;73074;52.006;4.704;2023-12-20T19:36:29;101034.63;;;8.90;99.61
83177;BME280;73074;52.006;4.704;2023-12-20T19:41:56;101045.97;;;8.95;99.29
83177;BME280;73074;52.006;4.704;2023-12-20T19:47:29;101018.38;;;9.01;99.10
83177;BME280;73074;52.006;4.704;2023-12-20T19:52:56;101021.78;;;9.04;98.78
83177;BME280;73074;52.006;4.704;2023-12-20T20:04:17;100993.81;;;9.21;97.26
83177;BME280;73074;52.006;4.704;2023-12-20T20:10:23;101009.31;;;9.33;96.15
83177;BME280;73074;52.006;4.704;2023-12-20T20:16:13;101013.69;;;9.34;96.53
83177;BME280;73074;52.006;4.704;2023-12-20T20:27:57;101012.31;;;9.47;95.34
83177;BME280;73074;52.006;4.704;2023-12-20T20:39:42;100995.22;;;9.56;94.68
83177;BME280;73074;52.006;4.704;2023-12-20T20:51:20;100979.19;;;9.59;94.75
83177;BME280;73074;52.006;4.704;2023-12-20T20:56:52;100960.69;;;9.57;94.83
